Time;durP1;ratioP1;P1;durP2;ratioP2;P2;SDS_P1;SDS_P2;PMS_P1;PMS_P2;Temp;Humidity;BMP_temperature;BMP_pressure;BME280_temperature;BME280_humidity;BME280_pressure;Samples;Min_cycle;Max_cycle;Signal;HPM_P1;HPM_P2
2023/09/14 00:00:51;;;;;;;6.07;2.80;;;11.70;99.90;;;;;;5049647;28;20041;-72
2023/09/14 00:03:18;;;;;;;6.68;2.55;;;11.00;99.90;;;;;;5049653;28;20049;-72
2023/09/14 00:05:44;;;;;;;6.60;2.58;;;11.30;99.90;;;;;;5049201;28;20095;-71
2023/09/14 00:08:12;;;;;;;7.40;2.15;;;11.00;99.90;;;;;;5048924;28;20045;-71
2023/09/14 00:10:38;;;;;;;5.57;2.30;;;11.00;99.90;;;;;;5049416;28;20049;-72
2023/09/14 00:13:05;;;;;;;6.35;2.63;;;11.30;99.90;;;;;;5048215;28;20487;-72
2023/09/14 00:15:32;;;;;;;7.05;2.92;;;11.10;99.90;;;;;;5049620;28;20128;-72
2023/09/14 00:17:58;;;;;;;6.82;2.53;;;11.00;99.90;;;;;;5049376;28;20063;-72
2023/09/14 00:20:26;;;;;;;8.40;2.80;;;11.00;99.90;;;;;;5049290;28;20041;-72
2023/09/14 00:22:53;;;;;;;7.00;2.90;;;11.00;99.90;;;;;;5049165;28;20403;-72
2023/09/14 00:25:23;;;;;;;7.43;2.50;;;11.10;99.90;;;;;;5052120;28;20124;-72
2023/09/14 00:27:50;;;;;;;9.32;2.72;;;11.30;99.90;;;;;;5051743;28;20132;-72
2023/09/14 00:30:16;;;;;;;5.00;2.28;;;11.10;99.90;;;;;;5052946;28;20509;-72
2023/09/14 00:32:42;;;;;;;10.88;3.28;;;11.00;99.90;;;;;;5052920;28;20045;-71
2023/09/14 00:35:09;;;;;;;7.03;2.53;;;11.40;99.90;;;;;;5051552;28;20045;-72
2023/09/14 00:37:36;;;;;;;8.23;2.70;;;11.00;99.90;;;;;;5052053;28;20128;-72
2023/09/14 00:40:08;;;;;;;7.30;2.30;;;11.00;99.90;;;;;;5053073;28;20132;-72
2023/09/14 00:42:44;;;;;;;8.57;3.00;;;11.00;99.90;;;;;;5052919;28;20053;-71
2023/09/14 00:45:17;;;;;;;5.10;2.70;;;11.10;99.90;;;;;;5053046;28;20060;-72
2023/09/14 00:47:48;;;;;;;6.68;2.60;;;11.10;99.90;;;;;;5052631;28;20053;-72
2023/09/14 00:50:16;;;;;;;7.70;2.80;;;11.60;99.90;;;;;;5050898;28;20095;-72
2023/09/14 00:53:10;;;;;;;7.45;2.92;;;11.20;99.90;;;;;;5052252;28;20539;-72
2023/09/14 00:55:36;;;;;;;6.47;2.60;;;11.20;99.90;;;;;;5047740;28;20045;-72
2023/09/14 00:58:03;;;;;;;9.88;3.30;;;11.40;99.90;;;;;;5052492;28;20041;-72
2023/09/14 01:00:28;;;;;;;10.13;2.53;;;11.10;99.90;;;;;;5052187;28;20033;-72
2023/09/14 01:02:55;;;;;;;10.77;2.75;;;11.30;99.90;;;;;;5052243;28;20400;-71
2023/09/14 01:05:21;;;;;;;5.93;2.30;;;11.30;99.90;;;;;;5052388;28;20439;-72
2023/09/14 01:07:47;;;;;;;9.00;2.50;;;11.20;99.90;;;;;;5052501;28;20033;-72
2023/09/14 01:10:15;;;;;;;8.65;2.80;;;11.20;99.90;;;;;;5051609;28;20546;-72
2023/09/14 01:12:42;;;;;;;10.07;2.78;;;11.20;99.90;;;;;;5068062;28;20056;-72
2023/09/14 01:15:26;;;;;;;6.00;2.70;;;11.20;99.90;;;;;;5051919;28;20036;-72
2023/09/14 01:18:13;;;;;;;5.80;2.47;;;11.20;99.90;;;;;;5050863;28;20053;-71
2023/09/14 01:21:03;;;;;;;7.18;2.65;;;11.20;99.90;;;;;;5042976;28;20053;-72
2023/09/14 01:23:53;;;;;;;10.85;2.60;;;11.20;99.90;;;;;;5051983;28;20033;-72
2023/09/14 01:26:19;;;;;;;6.10;2.53;;;11.20;99.90;;;;;;5051894;28;20048;-72
2023/09/14 01:28:45;;;;;;;5.65;2.78;;;11.80;99.90;;;;;;5051757;28;20037;-71
2023/09/14 01:31:11;;;;;;;7.13;2.72;;;11.40;99.90;;;;;;5051958;28;20037;-72
2023/09/14 01:33:37;;;;;;;5.88;2.47;;;11.20;99.90;;;;;;5051636;28;20037;-72
2023/09/14 01:36:18;;;;;;;9.65;2.90;;;11.40;99.90;;;;;;5033206;28;20045;-71
2023/09/14 01:38:45;;;;;;;5.00;1.90;;;11.10;99.90;;;;;;5050189;28;20057;-71
2023/09/14 01:41:11;;;;;;;6.72;2.63;;;11.00;99.90;;;;;;5051540;28;20045;-72
2023/09/14 01:43:38;;;;;;;4.47;2.38;;;11.00;99.90;;;;;;5051650;28;20045;-71
2023/09/14 01:46:04;;;;;;;7.95;2.30;;;11.00;99.90;;;;;;5051037;28;20048;-71
2023/09/14 01:48:30;;;;;;;10.73;2.20;;;11.40;99.90;;;;;;5051383;28;20061;-72
2023/09/14 01:50:55;;;;;;;4.57;2.42;;;10.90;99.90;;;;;;5051303;28;20440;-71
2023/09/14 01:53:21;;;;;;;4.88;2.17;;;10.90;99.90;;;;;;5051647;28;20048;-72
2023/09/14 01:55:47;;;;;;;8.43;2.20;;;11.00;99.90;;;;;;5050771;28;20045;-72
2023/09/14 01:58:12;;;;;;;4.95;2.20;;;10.90;99.90;;;;;;5049858;28;20057;-72
2023/09/14 02:00:38;;;;;;;6.85;2.35;;;10.80;99.90;;;;;;5051259;28;20043;-72
2023/09/14 02:03:04;;;;;;;6.63;2.05;;;10.70;99.90;;;;;;5050986;28;20041;-72
2023/09/14 02:05:30;;;;;;;6.20;2.38;;;10.60;99.90;;;;;;5049674;28;20049;-72
2023/09/14 02:07:56;;;;;;;7.72;2.22;;;10.60;99.90;;;;;;5050304;28;20055;-72
2023/09/14 02:10:22;;;;;;;5.47;2.47;;;10.50;99.90;;;;;;5050954;28;20057;-72
2023/09/14 02:12:51;;;;;;;7.47;2.33;;;11.00;99.90;;;;;;5050659;28;20476;-71
2023/09/14 02:15:17;;;;;;;6.00;2.35;;;10.40;99.90;;;;;;5050438;28;20037;-72
2023/09/14 02:17:43;;;;;;;6.60;2.50;;;10.40;99.90;;;;;;5049913;28;20045;-72
2023/09/14 02:20:09;;;;;;;7.03;2.33;;;10.30;99.90;;;;;;5050989;28;20052;-72
2023/09/14 02:22:35;;;;;;;4.45;2.40;;;10.20;99.90;;;;;;5042401;28;20048;-72
2023/09/14 02:25:02;;;;;;;4.13;2.10;;;10.50;99.90;;;;;;5049333;28;20050;-72
2023/09/14 02:27:28;;;;;;;5.85;2.22;;;10.10;99.90;;;;;;5050064;28;20095;-72
2023/09/14 02:29:54;;;;;;;3.95;1.88;;;10.70;99.90;;;;;;5050635;28;20033;-72
2023/09/14 02:32:20;;;;;;;5.07;2.20;;;10.00;99.90;;;;;;5049313;28;20052;-72
2023/09/14 02:34:48;;;;;;;8.40;2.47;;;10.00;99.90;;;;;;5050449;28;20067;-72
2023/09/14 02:37:14;;;;;;;8.77;2.50;;;10.00;99.90;;;;;;5050129;28;20131;-72
2023/09/14 02:39:39;;;;;;;4.30;2.22;;;9.90;99.90;;;;;;5049109;28;20052;-72
2023/09/14 02:42:05;;;;;;;7.38;2.10;;;9.80;99.90;;;;;;5050435;28;20040;-72
2023/09/14 02:44:30;;;;;;;4.43;2.08;;;9.80;99.90;;;;;;5050078;28;20522;-71
2023/09/14 02:46:56;;;;;;;6.00;2.80;;;9.80;99.90;;;;;;5064948;28;20044;-71
2023/09/14 02:49:22;;;;;;;4.85;2.13;;;9.70;99.90;;;;;;5050690;28;20045;-72
2023/09/14 02:51:47;;;;;;;5.57;1.83;;;9.70;99.90;;;;;;5050174;28;20041;-72
2023/09/14 02:54:13;;;;;;;5.22;1.85;;;9.60;99.90;;;;;;5049013;28;20049;-72
2023/09/14 02:56:40;;;;;;;3.67;2.17;;;9.60;99.90;;;;;;5050258;28;20045;-71
2023/09/14 02:59:06;;;;;;;5.28;1.73;;;9.50;99.90;;;;;;5050040;28;20052;-72
2023/09/14 03:01:32;;;;;;;6.80;2.00;;;9.50;99.90;;;;;;5049658;28;20424;-72
2023/09/14 03:03:58;;;;;;;4.88;2.00;;;9.80;99.90;;;;;;5050021;28;20094;-71
2023/09/14 03:06:25;;;;;;;4.57;2.17;;;9.40;99.90;;;;;;5050210;28;20038;-72
2023/09/14 03:08:52;;;;;;;6.45;2.22;;;9.40;99.90;;;;;;5052661;28;20081;-72
2023/09/14 03:11:17;;;;;;;4.35;1.88;;;9.40;99.90;;;;;;5049827;28;20149;-73
2023/09/14 03:13:43;;;;;;;5.75;1.90;;;9.40;99.90;;;;;;5049687;28;20037;-72
2023/09/14 03:16:08;;;;;;;4.22;2.05;;;9.30;99.90;;;;;;5049766;28;20044;-72
2023/09/14 03:18:34;;;;;;;6.00;1.85;;;9.30;99.90;;;;;;5063151;28;20471;-72
2023/09/14 03:21:00;;;;;;;3.80;2.00;;;9.20;99.90;;;;;;5050094;28;20044;-72
2023/09/14 03:23:25;;;;;;;3.42;1.60;;;9.40;99.90;;;;;;5049963;28;20427;-72
2023/09/14 03:25:51;;;;;;;4.82;1.80;;;9.20;99.90;;;;;;5049392;28;20057;-72
2023/09/14 03:28:17;;;;;;;3.83;1.05;;;9.20;99.90;;;;;;5049864;28;20124;-71
2023/09/14 03:30:44;;;;;;;3.80;1.25;;;9.10;99.90;;;;;;5065302;28;20132;-71
2023/09/14 03:33:10;;;;;;;4.40;1.30;;;9.10;99.90;;;;;;5050000;28;20524;-72
2023/09/14 03:35:36;;;;;;;3.50;1.10;;;9.50;99.90;;;;;;5050247;28;20045;-72
2023/09/14 03:38:02;;;;;;;3.90;1.40;;;9.50;99.90;;;;;;5049766;28;20124;-72
2023/09/14 03:40:28;;;;;;;3.10;1.40;;;9.00;99.90;;;;;;5050200;28;20045;-72
2023/09/14 03:42:53;;;;;;;3.17;1.40;;;9.00;99.90;;;;;;5048214;28;20049;-72
2023/09/14 03:45:19;;;;;;;6.13;1.77;;;8.90;99.90;;;;;;5049533;28;20069;-72
2023/09/14 03:47:46;;;;;;;6.93;1.92;;;8.90;99.90;;;;;;5049525;28;20372;-72
2023/09/14 03:50:12;;;;;;;3.05;1.60;;;9.20;99.90;;;;;;5049814;28;20107;-72
2023/09/14 03:52:38;;;;;;;2.92;1.55;;;9.10;99.90;;;;;;5065010;28;20492;-72
2023/09/14 03:55:04;;;;;;;3.45;1.83;;;8.80;99.90;;;;;;5049185;28;20057;-72
2023/09/14 03:57:30;;;;;;;4.95;1.60;;;8.80;99.90;;;;;;5049724;28;20435;-72
2023/09/14 03:59:56;;;;;;;4.82;1.90;;;8.80;99.90;;;;;;5052208;28;20055;-71
2023/09/14 04:02:23;;;;;;;5.20;2.10;;;8.80;99.90;;;;;;5051931;28;20052;-72
2023/09/14 04:04:49;;;;;;;7.47;1.50;;;8.70;99.90;;;;;;5053504;28;20068;-72
2023/09/14 04:07:15;;;;;;;4.40;1.48;;;8.70;99.90;;;;;;5052505;28;20057;-71
2023/09/14 04:09:41;;;;;;;2.70;1.52;;;9.20;99.90;;;;;;5051850;28;20132;-72
2023/09/14 04:12:07;;;;;;;1.85;1.23;;;8.70;99.90;;;;;;5053357;28;20131;-72
2023/09/14 04:14:34;;;;;;;5.60;2.10;;;8.60;99.90;;;;;;5053755;28;20090;-72
2023/09/14 04:17:01;;;;;;;3.75;1.48;;;9.20;99.90;;;;;;5053502;28;20045;-72
2023/09/14 04:19:28;;;;;;;4.45;1.63;;;8.60;99.90;;;;;;5053454;28;20443;-72
2023/09/14 04:21:53;;;;;;;3.10;1.20;;;8.60;99.90;;;;;;5053408;28;20049;-72
2023/09/14 04:24:20;;;;;;;2.47;1.15;;;8.60;99.90;;;;;;5053172;28;20086;-72
2023/09/14 04:26:46;;;;;;;2.95;0.90;;;8.50;99.90;;;;;;5053253;28;20048;-72
2023/09/14 04:29:12;;;;;;;3.80;1.42;;;8.50;99.90;;;;;;5051502;28;20153;-71
2023/09/14 04:31:37;;;;;;;3.67;1.20;;;8.50;99.90;;;;;;5052956;28;20462;-72
2023/09/14 04:34:04;;;;;;;4.32;1.45;;;8.50;99.90;;;;;;5053343;28;20029;-72
2023/09/14 04:36:31;;;;;;;4.93;1.55;;;8.50;99.90;;;;;;5052803;28;20544;-71
2023/09/14 04:38:57;;;;;;;1.88;1.15;;;8.40;99.90;;;;;;5051423;28;20041;-71
2023/09/14 04:41:22;;;;;;;2.00;1.23;;;8.40;99.90;;;;;;5052630;28;20045;-72
2023/09/14 04:43:48;;;;;;;2.67;1.27;;;8.40;99.90;;;;;;5051639;28;20107;-72
2023/09/14 04:46:14;;;;;;;4.70;1.50;;;8.40;99.90;;;;;;5053024;28;20084;-71
2023/09/14 04:48:41;;;;;;;8.32;1.98;;;8.40;99.90;;;;;;5050921;28;20517;-70
2023/09/14 04:51:07;;;;;;;5.38;2.15;;;8.50;99.90;;;;;;5044618;28;20136;-71
2023/09/14 04:53:33;;;;;;;5.30;2.50;;;8.40;99.90;;;;;;5052802;28;20127;-72
2023/09/14 04:55:59;;;;;;;5.85;1.80;;;8.50;99.90;;;;;;5052467;28;20041;-72
2023/09/14 04:58:25;;;;;;;2.83;1.35;;;8.40;99.90;;;;;;5052931;28;20425;-72
2023/09/14 05:00:51;;;;;;;2.35;1.40;;;8.30;99.90;;;;;;5067620;28;20490;-71
2023/09/14 05:03:17;;;;;;;6.00;1.75;;;8.50;99.90;;;;;;5051489;28;20048;-72
2023/09/14 05:05:48;;;;;;;5.13;2.00;;;8.30;99.90;;;;;;5052332;28;20045;-72
2023/09/14 05:08:14;;;;;;;7.18;2.10;;;8.60;99.90;;;;;;5052334;28;20523;-72
2023/09/14 05:10:39;;;;;;;4.20;2.10;;;8.30;99.90;;;;;;5050786;28;20097;-72
2023/09/14 05:13:05;;;;;;;4.47;2.17;;;8.30;99.90;;;;;;5052118;28;20045;-71
2023/09/14 05:15:31;;;;;;;4.00;1.80;;;8.20;99.90;;;;;;5052532;28;20130;-72
2023/09/14 05:17:57;;;;;;;6.03;2.10;;;8.40;99.90;;;;;;5052327;28;20593;-71
2023/09/14 05:20:22;;;;;;;3.38;1.90;;;8.20;99.90;;;;;;5050575;28;20056;-72
2023/09/14 05:22:48;;;;;;;3.65;2.03;;;8.80;99.90;;;;;;5052022;28;20040;-72
2023/09/14 05:25:14;;;;;;;10.68;2.25;;;8.20;99.90;;;;;;5051850;28;20037;-71
2023/09/14 05:27:41;;;;;;;5.60;2.00;;;8.20;99.90;;;;;;5043939;28;20044;-72
2023/09/14 05:30:11;;;;;;;4.80;1.98;;;8.20;99.90;;;;;;5052494;28;20768;-72
2023/09/14 05:32:38;;;;;;;5.97;1.67;;;8.20;99.90;;;;;;5051967;28;20057;-71
2023/09/14 05:35:06;;;;;;;3.35;2.00;;;8.20;99.90;;;;;;5050296;28;20536;-72
2023/09/14 05:37:33;;;;;;;5.78;2.47;;;8.20;99.90;;;;;;5052244;28;20094;-72
2023/09/14 05:39:58;;;;;;;3.80;2.25;;;8.40;99.90;;;;;;5051873;28;20049;-72
2023/09/14 05:42:24;;;;;;;3.95;2.08;;;8.20;99.90;;;;;;5052004;28;20043;-72
2023/09/14 05:44:49;;;;;;;5.40;1.95;;;8.20;99.90;;;;;;5050194;28;20065;-72
2023/09/14 05:47:15;;;;;;;5.70;2.10;;;8.30;99.90;;;;;;5051798;28;20410;-72
2023/09/14 05:49:41;;;;;;;4.50;2.33;;;8.30;99.90;;;;;;5051391;28;20048;-72
2023/09/14 05:52:08;;;;;;;5.15;2.22;;;8.80;99.90;;;;;;5051734;28;20045;-72
2023/09/14 05:54:34;;;;;;;8.52;2.10;;;8.60;99.90;;;;;;5051411;28;20120;-72
2023/09/14 05:57:00;;;;;;;5.70;2.08;;;8.30;99.90;;;;;;5051161;28;20112;-72
2023/09/14 05:59:25;;;;;;;5.30;2.15;;;8.40;99.90;;;;;;5051498;28;20041;-72
2023/09/14 06:01:51;;;;;;;6.65;2.50;;;8.40;99.90;;;;;;5049342;28;20805;-72
2023/09/14 06:04:17;;;;;;;6.32;2.35;;;8.40;99.90;;;;;;5051443;28;20139;-72
2023/09/14 06:06:43;;;;;;;5.95;2.50;;;8.50;99.90;;;;;;5051078;28;20064;-72
2023/09/14 06:09:09;;;;;;;4.65;2.05;;;8.50;99.90;;;;;;5049925;28;20400;-72
2023/09/14 06:11:35;;;;;;;5.00;2.22;;;9.00;99.90;;;;;;5051078;28;20052;-72
2023/09/14 06:14:01;;;;;;;5.90;2.72;;;8.60;99.90;;;;;;5051504;28;20086;-72
2023/09/14 06:16:26;;;;;;;4.30;2.00;;;9.10;99.90;;;;;;5050983;28;20032;-71
2023/09/14 06:18:52;;;;;;;6.20;2.53;;;8.70;99.90;;;;;;5051134;28;20083;-72
2023/09/14 06:21:18;;;;;;;6.47;2.55;;;8.80;99.90;;;;;;5048906;28;20148;-72
2023/09/14 06:23:44;;;;;;;8.43;2.50;;;8.80;99.90;;;;;;5049949;28;20041;-72
2023/09/14 06:26:10;;;;;;;4.63;2.30;;;9.20;99.90;;;;;;5050784;28;20051;-71
2023/09/14 06:28:35;;;;;;;7.07;2.80;;;9.30;99.90;;;;;;5050774;28;20120;-72
2023/09/14 06:31:01;;;;;;;9.35;3.22;;;9.00;99.90;;;;;;5050964;28;20431;-72
2023/09/14 06:33:27;;;;;;;8.00;2.95;;;9.10;99.90;;;;;;5050289;28;20048;-72
2023/09/14 06:35:52;;;;;;;6.53;2.70;;;9.50;99.90;;;;;;5050875;28;20140;-72
2023/09/14 06:38:18;;;;;;;5.72;2.70;;;9.20;99.90;;;;;;5049846;28;20040;-72
2023/09/14 06:40:44;;;;;;;8.63;2.78;;;9.30;99.90;;;;;;5050354;28;20041;-72
2023/09/14 06:43:10;;;;;;;4.55;2.42;;;9.60;99.90;;;;;;5050534;28;20070;-71
2023/09/14 06:45:36;;;;;;;6.35;2.33;;;9.80;99.90;;;;;;5049785;28;20147;-72
2023/09/14 06:48:01;;;;;;;6.60;2.45;;;9.50;99.90;;;;;;5065814;28;20079;-72
2023/09/14 06:50:27;;;;;;;8.25;2.50;;;9.50;99.90;;;;;;5050109;28;20040;-72
2023/09/14 06:52:53;;;;;;;7.00;2.65;;;10.10;99.90;;;;;;5049953;28;20048;-73
2023/09/14 06:55:20;;;;;;;6.72;2.90;;;10.00;99.90;;;;;;5050188;28;20055;-72
2023/09/14 06:57:45;;;;;;;8.20;2.83;;;9.80;99.90;;;;;;5049974;28;20162;-71
2023/09/14 07:00:15;;;;;;;8.45;2.50;;;10.20;99.90;;;;;;5049759;28;20120;-72
2023/09/14 07:02:41;;;;;;;7.00;2.67;;;9.90;99.90;;;;;;5050226;28;20051;-72
2023/09/14 07:05:09;;;;;;;6.85;2.60;;;10.00;99.90;;;;;;5050161;28;20049;-73
2023/09/14 07:07:35;;;;;;;6.00;2.33;;;10.10;99.90;;;;;;5050029;28;20107;-73
2023/09/14 07:10:01;;;;;;;6.57;2.47;;;10.20;99.90;;;;;;5048316;28;20092;-73
2023/09/14 07:12:27;;;;;;;6.10;2.40;;;10.30;99.90;;;;;;5048873;28;20124;-72
2023/09/14 07:14:53;;;;;;;5.65;2.22;;;10.40;99.90;;;;;;5048665;28;20492;-73
2023/09/14 07:17:18;;;;;;;6.28;2.10;;;10.50;99.90;;;;;;5049880;28;20111;-73
2023/09/14 07:19:44;;;;;;;3.63;2.03;;;10.60;99.90;;;;;;5050017;28;20120;-72
2023/09/14 07:22:10;;;;;;;7.28;2.33;;;10.80;99.90;;;;;;5048738;28;20047;-73
2023/09/14 07:24:35;;;;;;;5.00;2.03;;;11.00;99.90;;;;;;5049098;28;20083;-72
2023/09/14 07:27:01;;;;;;;7.10;2.42;;;11.00;99.90;;;;;;5049435;28;20443;-72
2023/09/14 07:29:28;;;;;;;9.25;2.17;;;11.70;99.90;;;;;;5049747;28;20060;-72
2023/09/14 07:31:55;;;;;;;7.50;2.33;;;11.50;99.90;;;;;;5050052;28;20039;-73
2023/09/14 07:34:20;;;;;;;5.00;1.92;;;11.30;99.90;;;;;;5052833;28;20055;-72
2023/09/14 07:36:46;;;;;;;11.73;2.17;;;11.50;99.90;;;;;;5053597;28;20041;-72
2023/09/14 07:39:12;;;;;;;9.57;2.13;;;11.60;99.90;;;;;;5053497;28;20060;-73
2023/09/14 07:41:37;;;;;;;12.48;2.17;;;12.20;99.90;;;;;;5052417;28;20056;-73
2023/09/14 07:44:03;;;;;;;6.10;1.55;;;11.90;99.90;;;;;;5069202;28;20128;-72
2023/09/14 07:46:29;;;;;;;5.93;1.67;;;12.00;99.90;;;;;;5053999;28;20045;-72
2023/09/14 07:48:54;;;;;;;6.88;1.20;;;12.20;99.90;;;;;;5068801;28;20037;-72
2023/09/14 07:51:20;;;;;;;5.90;1.00;;;12.30;99.90;;;;;;5053327;28;20052;-73
2023/09/14 07:53:45;;;;;;;10.60;1.50;;;12.50;99.90;;;;;;5053763;28;20561;-73
2023/09/14 07:56:11;;;;;;;8.48;1.63;;;12.60;99.90;;;;;;5052260;28;20122;-71
2023/09/14 07:58:37;;;;;;;6.38;1.70;;;12.80;99.90;;;;;;5053560;28;20483;-72
2023/09/14 08:01:02;;;;;;;6.50;1.88;;;13.00;99.90;;;;;;5053194;28;20072;-73
2023/09/14 08:03:29;;;;;;;8.55;1.60;;;13.10;99.90;;;;;;5053466;28;20036;-71
2023/09/14 08:05:54;;;;;;;8.18;1.40;;;13.30;99.90;;;;;;5053335;28;20093;-71
2023/09/14 08:08:20;;;;;;;7.22;1.20;;;13.50;99.90;;;;;;5053642;28;20431;-74
2023/09/14 08:10:53;;;;;;;4.93;1.58;;;13.70;99.90;;;;;;5053009;28;20048;-73
2023/09/14 08:13:19;;;;;;;17.70;2.30;;;13.80;99.90;;;;;;5051839;28;20060;-74
2023/09/14 08:15:45;;;;;;;7.60;1.27;;;14.10;99.90;;;;;;5053638;28;20388;-75
2023/09/14 08:18:11;;;;;;;6.95;1.52;;;14.30;99.90;;;;;;5053253;28;20056;-73
2023/09/14 08:20:44;;;;;;;4.53;1.20;;;14.50;99.90;;;;;;5068851;28;20059;-74
2023/09/14 08:23:12;;;;;;;5.55;1.50;;;14.80;99.90;;;;;;5053236;28;20052;-75
2023/09/14 08:25:43;;;;;;;8.88;2.15;;;15.10;99.90;;;;;;5045566;28;20044;-73
2023/09/14 08:28:10;;;;;;;7.28;1.77;;;15.40;99.90;;;;;;5053288;28;20064;-73
2023/09/14 08:30:37;;;;;;;9.73;1.17;;;15.70;99.90;;;;;;5052982;28;20045;-75
2023/09/14 08:33:03;;;;;;;6.57;1.55;;;15.90;99.90;;;;;;5053661;28;20041;-76
2023/09/14 08:35:31;;;;;;;10.43;2.08;;;16.20;99.90;;;;;;5068404;28;20045;-73
2023/09/14 08:37:57;;;;;;;6.05;1.05;;;16.40;99.90;;;;;;5052956;28;20041;-75
2023/09/14 08:40:24;;;;;;;10.15;1.40;;;16.60;99.90;;;;;;5052055;28;20051;-74
2023/09/14 08:42:52;;;;;;;8.90;1.65;;;16.90;99.90;;;;;;5052434;28;20055;-73
2023/09/14 08:45:25;;;;;;;9.15;1.67;;;17.20;99.90;;;;;;5051637;28;20095;-74
2023/09/14 08:47:52;;;;;;;10.25;1.70;;;17.40;99.90;;;;;;5050725;28;20424;-76
2023/09/14 08:50:20;;;;;;;6.25;1.42;;;17.60;99.90;;;;;;5053083;28;20060;-77
2023/09/14 08:52:46;;;;;;;8.43;1.42;;;17.70;99.90;;;;;;5052600;28;20125;-77
2023/09/14 08:55:15;;;;;;;7.97;1.50;;;17.90;99.90;;;;;;5051455;28;20052;-79
2023/09/14 08:57:43;;;;;;;6.85;1.60;;;18.10;99.90;;;;;;5052438;28;20054;-77
2023/09/14 09:00:17;;;;;;;5.65;1.42;;;18.10;99.90;;;;;;5052726;28;20115;-76
2023/09/14 09:02:51;;;;;;;11.43;2.60;;;18.10;99.90;;;;;;5052602;28;20049;-79
2023/09/14 09:05:18;;;;;;;9.40;1.55;;;18.20;99.90;;;;;;5044186;28;20041;-77
2023/09/14 09:07:47;;;;;;;8.77;2.42;;;18.40;99.90;;;;;;5052521;28;20451;-73
2023/09/14 09:10:23;;;;;;;8.50;1.48;;;18.70;99.90;;;;;;5052113;28;20064;-73
2023/09/14 09:12:56;;;;;;;5.50;1.40;;;18.90;99.90;;;;;;5052310;28;20056;-76
2023/09/14 09:15:26;;;;;;;9.10;1.48;;;19.00;99.90;;;;;;5052185;28;20120;-79
2023/09/14 09:17:53;;;;;;;6.65;1.60;;;19.20;99.90;;;;;;5051096;28;20123;-73
2023/09/14 09:20:23;;;;;;;8.27;1.42;;;19.40;99.90;;;;;;5052031;28;20452;-78
2023/09/14 09:22:55;;;;;;;4.43;1.17;;;19.50;99.90;;;;;;5052022;28;20506;-76
2023/09/14 09:25:22;;;;;;;8.07;1.42;;;19.70;99.90;;;;;;5052035;28;20037;-73
2023/09/14 09:27:57;;;;;;;5.25;1.35;;;19.90;99.90;;;;;;5052149;28;20055;-78
2023/09/14 09:30:32;;;;;;;9.73;2.13;;;20.10;99.90;;;;;;5049933;28;20049;-80
2023/09/14 09:32:59;;;;;;;6.68;2.00;;;20.30;99.90;;;;;;5051893;28;20049;-76
2023/09/14 09:35:26;;;;;;;4.53;1.02;;;20.50;99.90;;;;;;5051778;28;20507;-80
2023/09/14 09:37:54;;;;;;;6.43;1.63;;;20.70;99.90;;;;;;5050383;28;20053;-79
2023/09/14 09:40:26;;;;;;;6.38;1.17;;;20.80;99.90;;;;;;5051971;28;20037;-80
2023/09/14 09:42:55;;;;;;;5.45;1.15;;;20.90;99.90;;;;;;5050251;28;20045;-76
2023/09/14 09:45:24;;;;;;;8.82;1.42;;;21.10;99.90;;;;;;5051231;28;22054;-76
2023/09/14 09:47:50;;;;;;;5.38;1.13;;;21.20;99.90;;;;;;5051679;28;20049;-77
2023/09/14 09:50:20;;;;;;;4.43;1.30;;;21.40;99.90;;;;;;5051573;28;20496;-73
2023/09/14 09:52:47;;;;;;;5.32;1.35;;;21.40;99.90;;;;;;5051514;28;20120;-79
2023/09/14 09:55:17;;;;;;;4.97;1.42;;;21.30;99.90;;;;;;5051500;28;20782;-75
2023/09/14 09:57:50;;;;;;;7.40;1.73;;;21.20;99.90;;;;;;5066335;28;20065;-73
2023/09/14 10:00:17;;;;;;;6.43;1.30;;;21.20;99.90;;;;;;5043509;28;20143;-76
2023/09/14 10:02:42;;;;;;;17.30;1.85;;;21.40;99.90;;;;;;5051246;28;20147;-80
2023/09/14 10:05:08;;;;;;;8.70;1.33;;;21.60;99.90;;;;;;5051301;28;20096;-79
2023/09/14 10:07:41;;;;;;;4.80;1.42;;;21.40;99.90;;;;;;5051290;28;20041;-78
2023/09/14 10:10:09;;;;;;;6.80;1.70;;;21.50;99.90;;;;;;5066228;28;20400;-77
2023/09/14 10:12:39;;;;;;;15.75;1.60;;;21.60;99.90;;;;;;5049568;28;20049;-77
2023/09/14 10:15:06;;;;;;;10.80;2.05;;;21.80;99.90;;;;;;5050957;28;20037;-75
2023/09/14 10:17:32;;;;;;;5.90;1.25;;;22.00;99.90;;;;;;5048937;28;20052;-78
2023/09/14 10:19:58;;;;;;;8.95;1.70;;;22.20;99.90;;;;;;5051268;28;20037;-77
2023/09/14 10:22:25;;;;;;;6.00;1.48;;;22.10;99.90;;;;;;5050718;28;20507;-76
2023/09/14 10:24:51;;;;;;;7.20;1.67;;;22.00;99.90;;;;;;5051037;28;20048;-76
2023/09/14 10:27:17;;;;;;;6.65;1.50;;;22.20;99.90;;;;;;5050595;28;20048;-78
2023/09/14 10:29:44;;;;;;;8.20;1.70;;;22.30;99.90;;;;;;5050772;28;20127;-75
2023/09/14 10:32:15;;;;;;;9.18;1.75;;;22.30;99.90;;;;;;5050312;28;20403;-79
2023/09/14 10:34:41;;;;;;;7.75;2.00;;;22.30;99.90;;;;;;5050568;28;20146;-73
2023/09/14 10:37:11;;;;;;;6.57;1.63;;;22.20;99.90;;;;;;5050707;28;20092;-76
2023/09/14 10:39:37;;;;;;;6.05;1.50;;;22.20;99.90;;;;;;5050476;28;20060;-76
2023/09/14 10:42:06;;;;;;;6.55;1.70;;;22.20;99.90;;;;;;5050360;28;20052;-74
2023/09/14 10:44:33;;;;;;;7.70;2.13;;;22.30;99.90;;;;;;5049082;28;20048;-74
2023/09/14 10:47:01;;;;;;;7.75;1.60;;;22.10;99.90;;;;;;5050454;28;20037;-73
2023/09/14 10:49:35;;;;;;;4.97;1.40;;;22.30;99.90;;;;;;5049203;28;20051;-75
2023/09/14 10:52:02;;;;;;;6.53;2.00;;;22.30;99.90;;;;;;5049684;28;20052;-75
2023/09/14 10:54:31;;;;;;;9.30;1.67;;;22.60;99.90;;;;;;5050593;28;20396;-77
2023/09/14 10:56:58;;;;;;;7.30;1.70;;;22.20;99.90;;;;;;5050293;28;20095;-76
2023/09/14 10:59:49;;;;;;;5.82;1.45;;;22.00;99.90;;;;;;5048929;28;20053;-75
2023/09/14 11:02:37;;;;;;;8.88;1.73;;;21.70;99.90;;;;;;5042346;28;20037;-76
2023/09/14 11:05:11;;;;;;;6.10;1.98;;;21.40;99.90;;;;;;5050208;28;20049;-75
2023/09/14 11:07:44;;;;;;;5.30;1.42;;;21.30;99.90;;;;;;5048600;28;20076;-75
2023/09/14 11:10:13;;;;;;;7.60;1.90;;;21.30;99.90;;;;;;5050372;28;20064;-77
2023/09/14 11:12:39;;;;;;;6.13;1.33;;;21.60;99.90;;;;;;5050359;28;20045;-75
2023/09/14 11:15:32;;;;;;;8.68;1.60;;;21.70;99.90;;;;;;5050137;28;20032;-73
2023/09/14 11:17:58;;;;;;;8.45;2.28;;;22.00;99.90;;;;;;5050218;28;20048;-76
2023/09/14 11:20:24;;;;;;;7.03;1.95;;;22.10;99.90;;;;;;5057651;28;20040;-77
2023/09/14 11:22:52;;;;;;;11.23;2.05;;;22.30;99.90;;;;;;5049409;28;20120;-85
2023/09/14 11:25:33;;;;;;;6.78;1.40;;;22.40;99.90;;;;;;5048396;28;20041;-77
2023/09/14 11:28:00;;;;;;;10.68;1.50;;;22.60;99.90;;;;;;5050329;28;20036;-79
2023/09/14 11:30:27;;;;;;;7.38;1.50;;;22.40;99.90;;;;;;5049918;28;20369;-79
2023/09/14 11:32:54;;;;;;;8.43;2.00;;;22.50;99.90;;;;;;5050024;28;20053;-79
2023/09/14 11:35:45;;;;;;;4.25;1.50;;;22.60;99.90;;;;;;5049510;28;20048;-73
2023/09/14 11:38:23;;;;;;;6.35;1.50;;;22.70;99.70;;;;;;5062895;28;20060;-77
2023/09/14 11:40:48;;;;;;;5.28;1.52;;;22.70;99.90;;;;;;5049961;28;20045;-74
2023/09/14 11:43:27;;;;;;;9.23;1.60;;;22.60;99.90;;;;;;5049910;28;20040;-76
2023/09/14 11:46:04;;;;;;;7.80;1.67;;;22.40;99.90;;;;;;5049827;28;20057;-74
2023/09/14 11:48:35;;;;;;;8.38;2.28;;;22.20;99.90;;;;;;5050068;28;20200;-74
2023/09/14 11:51:02;;;;;;;8.45;1.88;;;22.40;99.90;;;;;;5041647;28;20041;-74
2023/09/14 11:53:31;;;;;;;5.97;1.85;;;22.60;99.90;;;;;;5049985;28;20940;-74
2023/09/14 11:55:57;;;;;;;9.98;1.90;;;22.70;99.90;;;;;;5049573;28;20046;-81
2023/09/14 11:58:26;;;;;;;10.60;1.65;;;22.80;99.90;;;;;;5048863;28;20053;-75
2023/09/14 12:00:54;;;;;;;7.25;2.03;;;23.00;99.90;;;;;;5049659;28;20047;-75
2023/09/14 12:03:21;;;;;;;14.02;2.33;;;23.00;99.90;;;;;;5049712;28;20048;-76
2023/09/14 12:05:47;;;;;;;8.80;2.08;;;23.00;99.20;;;;;;5049177;28;20041;-77
2023/09/14 12:08:14;;;;;;;6.88;1.73;;;23.10;99.60;;;;;;5049312;28;20198;-74
2023/09/14 12:10:41;;;;;;;7.38;1.98;;;23.20;99.80;;;;;;5049884;28;20565;-83
2023/09/14 12:13:14;;;;;;;6.80;1.75;;;23.20;99.10;;;;;;5049698;28;20497;-86
2023/09/14 12:15:48;;;;;;;5.07;1.90;;;23.20;99.00;;;;;;5050118;28;20373;-86
2023/09/14 12:18:16;;;;;;;4.33;1.60;;;23.20;98.50;;;;;;5049675;28;20155;-83
2023/09/14 12:20:46;;;;;;;8.13;1.92;;;23.20;99.00;;;;;;5053388;28;20037;-82
2023/09/14 12:23:13;;;;;;;5.45;1.95;;;23.20;98.90;;;;;;5053664;28;20052;-82
2023/09/14 12:25:39;;;;;;;7.93;2.08;;;23.40;99.20;;;;;;5053939;28;20125;-82
2023/09/14 12:28:07;;;;;;;6.80;1.80;;;23.40;98.90;;;;;;5053695;28;20265;-76
2023/09/14 12:30:34;;;;;;;4.25;1.58;;;23.50;98.70;;;;;;5067643;28;20094;-73
2023/09/14 12:33:02;;;;;;;9.05;1.88;;;23.60;98.70;;;;;;5053056;28;20045;-76
2023/09/14 12:35:29;;;;;;;9.02;2.10;;;23.60;98.30;;;;;;5052900;28;20053;-75
2023/09/14 12:38:03;;;;;;;10.90;2.20;;;23.60;98.50;;;;;;5052511;28;20047;-75
2023/09/14 12:40:34;;;;;;;7.75;2.10;;;23.70;98.50;;;;;;5052975;28;20048;-76
2023/09/14 12:43:02;;;;;;;5.78;2.05;;;23.70;97.40;;;;;;5052991;28;20040;-77
2023/09/14 12:45:28;;;;;;;7.30;1.77;;;23.80;97.90;;;;;;5052727;28;20084;-75
2023/09/14 12:47:54;;;;;;;7.97;2.22;;;23.70;97.60;;;;;;5052203;28;20131;-74
2023/09/14 12:50:19;;;;;;;4.85;1.98;;;23.60;97.70;;;;;;5051564;28;20159;-71
2023/09/14 12:52:46;;;;;;;6.57;1.80;;;23.60;97.50;;;;;;5052056;28;20567;-71